Time;durP1;ratioP1;P1;durP2;ratioP2;P2;SDS_P1;SDS_P2;PMS_P1;PMS_P2;Temp;Humidity;BMP_temperature;BMP_pressure;BME280_temperature;BME280_humidity;BME280_pressure;Samples;Min_cycle;Max_cycle;Signal;HPM_P1;HPM_P2
2021/11/01 00:00:05;;;;;;;26.40;17.98;;;;;;;11.66;93.19;99432.00;5073718;28;20024;-76
2021/11/01 00:02:30;;;;;;;26.63;18.17;;;;;;;11.68;93.26;99429.75;5072552;28;20477;-77
2021/11/01 00:04:56;;;;;;;28.80;19.95;;;;;;;11.70;93.11;99427.50;5072432;28;20031;-77
2021/11/01 00:07:21;;;;;;;28.77;19.27;;;;;;;11.72;93.73;99408.88;5072254;28;20024;-76
2021/11/01 00:09:46;;;;;;;27.40;18.92;;;;;;;11.75;93.55;99389.13;5073518;28;20024;-77
2021/11/01 00:12:13;;;;;;;28.13;17.73;;;;;;;11.78;93.55;99377.59;5073496;28;20527;-77
2021/11/01 00:14:39;;;;;;;28.83;19.05;;;;;;;11.80;93.79;99389.00;5073538;28;20024;-76
2021/11/01 00:17:04;;;;;;;26.30;18.70;;;;;;;11.81;93.75;99363.28;5073376;28;20378;-76
2021/11/01 00:19:30;;;;;;;26.08;17.77;;;;;;;11.82;93.84;99362.19;5072096;28;20020;-77
2021/11/01 00:21:55;;;;;;;26.95;19.05;;;;;;;11.83;94.05;99355.59;5073285;28;20032;-76
2021/11/01 00:24:20;;;;;;;29.30;18.45;;;;;;;11.85;94.00;99352.56;5072212;28;20031;-77
2021/11/01 00:26:46;;;;;;;34.15;17.90;;;;;;;11.87;94.18;99347.63;5072062;28;20123;-77
2021/11/01 00:29:11;;;;;;;27.85;19.67;;;;;;;11.90;94.22;99347.78;5072064;28;20407;-76
2021/11/01 00:31:37;;;;;;;31.20;20.05;;;;;;;11.91;94.26;99332.22;5072055;28;20420;-76
2021/11/01 00:34:02;;;;;;;30.55;19.20;;;;;;;11.90;94.06;99312.28;5072851;28;20465;-75
2021/11/01 00:36:28;;;;;;;28.23;19.70;;;;;;;11.90;94.28;99320.47;5071887;28;20032;-76
2021/11/01 00:38:53;;;;;;;27.83;18.55;;;;;;;11.90;94.50;99295.91;5072975;28;20031;-76
2021/11/01 00:41:20;;;;;;;24.63;17.63;;;;;;;11.92;94.54;99282.75;5071688;28;20020;-76
2021/11/01 00:43:46;;;;;;;30.77;19.85;;;;;;;11.94;94.75;99301.53;5070208;28;20385;-76
2021/11/01 00:46:11;;;;;;;29.30;19.15;;;;;;;11.94;94.63;99296.88;5075509;28;20016;-75
2021/11/01 00:48:38;;;;;;;34.88;20.15;;;;;;;11.90;94.91;99290.44;5064261;28;20024;-76
2021/11/01 00:51:03;;;;;;;29.83;19.73;;;;;;;11.89;94.94;99291.53;5091257;28;20024;-76
2021/11/01 00:53:34;;;;;;;28.45;19.10;;;;;;;11.86;95.08;99264.88;5091902;28;20063;-77
2021/11/01 00:56:00;;;;;;;34.33;20.70;;;;;;;11.87;95.43;99269.25;5093025;28;20024;-75
2021/11/01 00:58:26;;;;;;;28.20;20.42;;;;;;;11.89;95.61;99288.03;5072704;28;20431;-75
2021/11/01 01:00:52;;;;;;;32.47;19.65;;;;;;;11.90;95.82;99274.06;5072715;28;20025;-76
2021/11/01 01:03:17;;;;;;;27.90;19.63;;;;;;;11.92;95.62;99304.59;5072825;28;20031;-75
2021/11/01 01:05:43;;;;;;;28.35;18.25;;;;;;;11.91;95.71;99286.56;5091682;28;20067;-76
2021/11/01 01:08:09;;;;;;;26.42;15.70;;;;;;;11.88;95.84;99291.88;5091397;28;20397;-76
2021/11/01 01:10:35;;;;;;;29.33;17.80;;;;;;;11.86;96.25;99256.69;5092832;28;20052;-76
2021/11/01 01:13:00;;;;;;;30.58;18.50;;;;;;;11.87;96.34;99276.63;5091341;28;20113;-75
2021/11/01 01:15:27;;;;;;;27.95;18.52;;;;;;;11.92;96.74;99268.25;5092504;28;20024;-75
2021/11/01 01:18:02;;;;;;;23.90;16.45;;;;;;;11.95;96.62;99271.19;5091495;28;20062;-76
2021/11/01 01:20:27;;;;;;;26.73;16.50;;;;;;;12.02;96.75;99295.28;5091072;28;20067;-75
2021/11/01 01:22:52;;;;;;;26.58;17.13;;;;;;;12.08;96.67;99301.38;5092587;28;20016;-75
2021/11/01 01:25:29;;;;;;;22.73;14.88;;;;;;;12.13;96.74;99293.81;5092392;28;20024;-75
2021/11/01 01:28:11;;;;;;;25.42;16.80;;;;;;;12.19;96.53;99298.03;5089393;28;20042;-75
2021/11/01 01:30:36;;;;;;;20.30;15.18;;;;;;;12.26;96.47;99300.28;5091088;28;20111;-76
2021/11/01 01:33:02;;;;;;;23.20;15.48;;;;;;;12.32;96.10;99295.44;5092378;28;20098;-75
2021/11/01 01:35:28;;;;;;;22.50;14.73;;;;;;;12.36;95.83;99290.97;5092506;28;20144;-75
2021/11/01 01:37:53;;;;;;;24.95;17.05;;;;;;;12.36;95.61;99307.34;5091057;28;20036;-75
2021/11/01 01:40:20;;;;;;;30.88;18.70;;;;;;;12.35;95.30;99295.59;5092079;28;20028;-76
2021/11/01 01:42:45;;;;;;;24.98;19.13;;;;;;;12.35;95.20;99289.34;5091092;28;20023;-76
2021/11/01 01:45:11;;;;;;;26.38;18.05;;;;;;;12.32;94.84;99259.91;5083144;28;20424;-75
2021/11/01 01:47:40;;;;;;;30.08;19.88;;;;;;;12.17;94.50;99283.88;5070906;28;20024;-76
2021/11/01 01:50:05;;;;;;;24.90;16.08;;;;;;;12.10;94.68;99267.16;5071936;28;20020;-75
2021/11/01 01:52:31;;;;;;;32.38;18.27;;;;;;;12.14;94.40;99275.50;5072139;28;20078;-75
2021/11/01 01:54:57;;;;;;;28.88;17.40;;;;;;;12.20;94.04;99271.50;5070581;28;20026;-76
2021/11/01 01:57:22;;;;;;;27.10;16.27;;;;;;;12.24;93.67;99271.66;5071981;28;20052;-75
2021/11/01 01:59:48;;;;;;;29.55;19.25;;;;;;;12.26;93.17;99248.34;5071747;28;20408;-76
2021/11/01 02:02:13;;;;;;;28.75;17.98;;;;;;;12.31;92.64;99245.47;5071224;28;20465;-76
2021/11/01 02:04:39;;;;;;;24.23;16.75;;;;;;;12.34;92.18;99239.34;5076179;28;20023;-75
2021/11/01 02:07:17;;;;;;;29.40;17.65;;;;;;;12.39;91.77;99252.06;5074841;28;20172;-75
2021/11/01 02:09:57;;;;;;;20.38;13.80;;;;;;;12.47;91.30;99239.47;5076140;28;20040;-75
2021/11/01 02:12:35;;;;;;;22.55;13.45;;;;;;;12.62;89.98;99211.63;5074800;28;20025;-75
2021/11/01 02:15:06;;;;;;;21.67;13.73;;;;;;;12.70;88.96;99245.56;5074643;28;20497;-74
2021/11/01 02:17:32;;;;;;;23.52;15.13;;;;;;;12.73;88.42;99195.69;5074715;28;20062;-76
2021/11/01 02:20:02;;;;;;;24.90;14.13;;;;;;;12.80;87.97;99221.41;5074414;28;20444;-75
2021/11/01 02:22:52;;;;;;;20.08;13.63;;;;;;;12.81;87.84;99214.78;5074562;28;20051;-75
2021/11/01 02:25:40;;;;;;;22.08;15.60;;;;;;;12.86;87.44;99211.88;5074180;28;20363;-75
2021/11/01 02:28:09;;;;;;;20.45;13.75;;;;;;;12.93;87.06;99216.03;5075713;28;20058;-75
2021/11/01 02:30:35;;;;;;;24.17;12.48;;;;;;;12.92;86.93;99214.44;5074196;28;20016;-75
2021/11/01 02:33:01;;;;;;;22.33;14.48;;;;;;;12.88;86.96;99212.38;5074379;28;20203;-74
2021/11/01 02:35:26;;;;;;;26.15;15.27;;;;;;;12.83;86.77;99190.66;5074277;28;20200;-75
2021/11/01 02:37:52;;;;;;;28.65;14.70;;;;;;;12.78;86.77;99248.25;5066304;28;20031;-74
2021/11/01 02:40:17;;;;;;;24.80;12.80;;;;;;;12.72;86.91;99260.50;5094357;28;20195;-75
2021/11/01 02:42:43;;;;;;;20.58;14.13;;;;;;;12.65;87.01;99233.66;5095840;28;20016;-75
2021/11/01 02:45:10;;;;;;;19.17;10.80;;;;;;;12.56;87.24;99221.16;5085537;28;20462;-75
2021/11/01 02:47:35;;;;;;;26.60;12.98;;;;;;;12.52;87.89;99266.63;5075063;28;20397;-75
2021/11/01 02:50:02;;;;;;;27.52;15.13;;;;;;;12.52;87.99;99250.25;5075248;28;20027;-74
2021/11/01 02:52:28;;;;;;;27.23;16.30;;;;;;;12.48;88.08;99265.69;5073813;28;20028;-75
2021/11/01 02:54:55;;;;;;;25.75;15.90;;;;;;;12.43;88.22;99253.78;5073794;28;20531;-75
2021/11/01 02:57:21;;;;;;;27.23;15.07;;;;;;;12.34;88.53;99239.34;5073853;28;20025;-75
2021/11/01 02:59:46;;;;;;;27.25;17.38;;;;;;;12.21;89.63;99245.78;5075123;28;20425;-75
2021/11/01 03:02:12;;;;;;;28.13;17.30;;;;;;;12.14;89.94;99229.06;5073810;28;20099;-74
2021/11/01 03:04:38;;;;;;;27.58;15.45;;;;;;;12.08;90.41;99213.97;5074721;28;20029;-76
2021/11/01 03:07:04;;;;;;;36.10;19.35;;;;;;;12.02;91.06;99213.34;5073698;28;20046;-75
2021/11/01 03:09:31;;;;;;;35.13;17.88;;;;;;;11.97;91.54;99206.09;5069995;28;20048;-75
2021/11/01 03:11:57;;;;;;;34.80;17.15;;;;;;;11.87;92.37;99225.56;5094798;28;20031;-75
2021/11/01 03:14:29;;;;;;;35.35;16.45;;;;;;;11.83;92.99;99232.72;5093446;28;20096;-76
2021/11/01 03:16:58;;;;;;;57.70;20.40;;;;;;;11.82;93.46;99239.31;5092741;28;20039;-75
2021/11/01 03:19:24;;;;;;;28.25;15.38;;;;;;;11.87;93.51;99269.25;5077061;28;20028;-75
2021/11/01 03:21:50;;;;;;;40.40;17.45;;;;;;;11.92;93.49;99244.50;5093476;28;20457;-75
2021/11/01 03:24:16;;;;;;;37.70;19.88;;;;;;;11.96;93.39;99253.66;5094787;28;20028;-75
2021/11/01 03:26:42;;;;;;;24.25;15.20;;;;;;;11.97;93.01;99241.59;5076630;28;20054;-76
2021/11/01 03:29:08;;;;;;;28.75;17.60;;;;;;;12.00;92.92;99231.97;5076918;28;20184;-75
2021/11/01 03:31:33;;;;;;;32.58;15.50;;;;;;;12.01;92.42;99239.06;5093590;28;20110;-75
2021/11/01 03:33:59;;;;;;;28.92;15.40;;;;;;;12.01;92.62;99249.97;5093225;28;20380;-75
2021/11/01 03:36:24;;;;;;;33.85;17.08;;;;;;;12.03;92.51;99266.03;5076471;28;20031;-74
2021/11/01 03:38:50;;;;;;;29.65;17.38;;;;;;;12.05;92.33;99247.41;5059953;28;20039;-74
2021/11/01 03:41:17;;;;;;;33.97;18.42;;;;;;;12.07;92.15;99242.41;5073116;28;20031;-74
2021/11/01 03:43:54;;;;;;;26.70;16.33;;;;;;;12.07;92.17;99239.69;5072799;28;20074;-74
2021/11/01 03:46:33;;;;;;;29.65;17.13;;;;;;;12.08;92.11;99263.13;5087111;28;20048;-75
2021/11/01 03:48:59;;;;;;;32.75;17.77;;;;;;;12.10;92.00;99260.91;5070501;28;20024;-75
2021/11/01 03:51:40;;;;;;;26.83;16.80;;;;;;;12.10;91.84;99269.88;5092949;28;20428;-75
2021/11/01 03:54:06;;;;;;;22.67;13.85;;;;;;;12.10;91.58;99255.44;5093198;28;20040;-75
2021/11/01 03:56:32;;;;;;;30.95;16.02;;;;;;;12.07;91.40;99262.34;5092779;28;20061;-75
2021/11/01 03:58:57;;;;;;;31.90;19.05;;;;;;;12.03;91.85;99261.38;5093047;28;20020;-74
2021/11/01 04:01:23;;;;;;;29.70;17.73;;;;;;;12.02;91.83;99229.72;5075935;28;20477;-75
2021/11/01 04:03:48;;;;;;;33.65;17.92;;;;;;;12.01;91.67;99258.16;5076036;28;20026;-75
2021/11/01 04:06:17;;;;;;;30.30;20.05;;;;;;;11.97;91.91;99240.81;5092624;28;20031;-75
2021/11/01 04:08:42;;;;;;;30.83;18.23;;;;;;;11.98;92.19;99267.81;5092680;28;20093;-75
2021/11/01 04:11:09;;;;;;;31.10;18.30;;;;;;;11.99;92.05;99266.66;5093854;28;20032;-75
2021/11/01 04:13:35;;;;;;;38.45;21.35;;;;;;;12.02;92.13;99272.63;5075705;28;20344;-75
2021/11/01 04:16:10;;;;;;;29.25;15.88;;;;;;;12.04;91.75;99301.22;5075819;28;20024;-75
2021/11/01 04:18:49;;;;;;;30.23;18.67;;;;;;;12.05;91.72;99228.28;5093659;28;20019;-76
2021/11/01 04:21:14;;;;;;;34.17;21.42;;;;;;;11.95;91.85;99254.78;5092578;28;20024;-75
2021/11/01 04:23:40;;;;;;;30.15;17.23;;;;;;;11.78;92.19;99255.56;5093532;28;20012;-75
2021/11/01 04:26:05;;;;;;;35.45;18.10;;;;;;;11.63;93.04;99277.03;5092817;28;20473;-74
2021/11/01 04:28:31;;;;;;;41.47;17.98;;;;;;;11.54;94.02;99271.56;5092362;28;20024;-75
2021/11/01 04:31:44;;;;;;;34.05;16.80;;;;;;;11.51;94.61;99262.09;5092404;28;20016;-75
2021/11/01 04:33:43;;;;;;;34.70;16.23;;;;;;;11.50;94.93;99256.94;5082352;28;20122;-75
2021/11/01 04:36:09;;;;;;;39.20;18.13;;;;;;;11.51;95.11;99233.97;5092277;28;20027;-75
2021/11/01 04:38:55;;;;;;;36.25;16.75;;;;;;;11.53;95.53;99246.19;5093520;28;20024;-75
2021/11/01 04:41:34;;;;;;;36.42;17.88;;;;;;;11.56;95.46;99256.44;5077971;28;20050;-74
2021/11/01 04:54:57;;;;;;;33.63;18.48;;;;;;;11.72;95.32;99228.72;5092985;28;20076;-75
2021/11/01 04:57:24;;;;;;;37.88;23.27;;;;;;;11.72;94.98;99229.50;5093058;28;20419;-74
2021/11/01 04:59:50;;;;;;;33.28;16.45;;;;;;;11.72;95.05;99242.34;5091727;28;20386;-76
2021/11/01 05:02:17;;;;;;;33.17;20.42;;;;;;;11.75;94.98;99241.72;5092020;28;20024;-75
2021/11/01 05:04:44;;;;;;;34.30;20.67;;;;;;;11.75;94.87;99239.78;5074958;28;20031;-75
2021/11/01 05:07:09;;;;;;;29.50;18.67;;;;;;;11.75;94.84;99228.88;5091456;28;20426;-76
2021/11/01 05:12:29;;;;;;;37.72;20.70;;;;;;;11.78;94.86;99244.63;5072507;28;20040;-75
2021/11/01 05:25:38;;;;;;;33.03;17.85;;;;;;;11.86;94.17;99247.69;5074699;28;20396;-76
2021/11/01 05:30:42;;;;;;;35.90;22.52;;;;;;;11.90;93.98;99237.75;5092447;28;20016;-75
2021/11/01 05:35:35;;;;;;;33.35;20.02;;;;;;;11.91;93.74;99253.00;5091137;28;20069;-74
2021/11/01 05:38:01;;;;;;;34.92;16.10;;;;;;;11.93;93.48;99251.56;5092234;28;20024;-75
2021/11/01 05:40:26;;;;;;;29.83;17.70;;;;;;;11.94;93.42;99228.59;5092445;28;20020;-74
2021/11/01 05:42:52;;;;;;;33.17;18.52;;;;;;;11.94;93.33;99234.06;5092165;28;20461;-74
2021/11/01 05:45:17;;;;;;;29.63;16.55;;;;;;;11.96;93.13;99270.03;5082303;28;20017;-74
2021/11/01 05:47:46;;;;;;;28.58;14.82;;;;;;;11.96;93.08;99261.84;5070024;28;20020;-74
2021/11/01 05:50:11;;;;;;;35.90;20.80;;;;;;;11.96;93.18;99261.84;5091094;28;20018;-74
2021/11/01 05:52:37;;;;;;;35.08;19.90;;;;;;;11.95;93.21;99256.72;5092003;28;20020;-74
2021/11/01 05:55:33;;;;;;;34.08;18.15;;;;;;;11.92;93.04;99239.06;5092476;28;20043;-74
2021/11/01 06:02:49;;;;;;;35.50;21.55;;;;;;;11.90;93.48;99260.41;5092096;28;20048;-73
2021/11/01 06:05:37;;;;;;;30.33;16.58;;;;;;;11.87;93.67;99261.06;5092123;28;20047;-74
2021/11/01 06:13:29;;;;;;;33.42;19.33;;;;;;;11.87;94.32;99284.81;5092171;28;20036;-75
2021/11/01 06:15:55;;;;;;;37.88;19.83;;;;;;;11.87;94.54;99280.16;5091137;28;20020;-76
2021/11/01 06:18:23;;;;;;;33.15;19.17;;;;;;;11.86;94.68;99284.00;5090652;28;20024;-75
2021/11/01 06:20:49;;;;;;;33.88;19.77;;;;;;;11.86;94.84;99289.47;5091918;28;20020;-75
2021/11/01 06:23:14;;;;;;;36.40;19.33;;;;;;;11.86;95.08;99289.47;5091736;28;20374;-75
2021/11/01 06:25:40;;;;;;;31.85;19.77;;;;;;;11.85;95.33;99278.84;5090803;28;20027;-75
2021/11/01 06:28:12;;;;;;;32.35;19.92;;;;;;;11.84;95.16;99280.78;5091895;28;20024;-75
2021/11/01 06:30:42;;;;;;;39.00;22.73;;;;;;;11.85;95.44;99287.84;5090737;28;20103;-75
2021/11/01 06:43:44;;;;;;;39.95;22.85;;;;;;;11.88;95.92;99298.16;5070710;28;20024;-75
2021/11/01 07:18:51;;;;;;;38.78;19.65;;;;;;;11.90;96.63;99347.78;5075029;28;20094;-74
2021/11/01 09:03:49;;;;;;;33.17;17.25;;;;;;;11.95;98.16;99376.88;5071754;28;20035;-75
2021/11/01 09:06:51;;;;;;;32.22;17.08;;;;;;;11.92;97.98;99383.78;5072398;28;20025;-74
2021/11/01 09:20:08;;;;;;;35.10;18.13;;;;;;;11.89;98.63;99398.03;5072342;28;20096;-74
2021/11/01 09:27:53;;;;;;;30.23;18.08;;;;;;;11.88;98.72;99393.72;5071426;28;20020;-75
2021/11/01 09:41:01;;;;;;;27.75;13.25;;;;;;;11.95;98.77;99385.06;5072355;28;20048;-75
2021/11/01 09:43:30;;;;;;;34.17;16.45;;;;;;;11.95;98.75;99402.25;5072147;28;20100;-74
2021/11/01 09:45:56;;;;;;;29.58;13.48;;;;;;;11.94;98.66;99389.72;5086118;28;20031;-75
2021/11/01 09:48:21;;;;;;;36.33;14.98;;;;;;;11.94;98.70;99386.19;5071124;28;20031;-74
2021/11/01 09:50:49;;;;;;;29.13;12.40;;;;;;;11.93;98.64;99388.13;5067125;28;20024;-75
2021/11/01 09:53:23;;;;;;;33.90;15.23;;;;;;;11.93;98.92;99388.13;5091900;28;20384;-75
2021/11/01 09:56:07;;;;;;;40.75;16.98;;;;;;;11.93;98.94;99393.56;5092160;28;20168;-74
2021/11/01 10:01:21;;;;;;;35.33;16.00;;;;;;;11.94;98.79;99406.09;5091896;28;20149;-75
2021/11/01 10:03:49;;;;;;;36.03;14.27;;;;;;;11.96;98.94;99400.34;5090981;28;20020;-74
2021/11/01 10:06:19;;;;;;;27.13;14.50;;;;;;;11.96;99.03;99412.06;5090758;28;20099;-75
2021/11/01 10:09:05;;;;;;;33.28;13.98;;;;;;;11.97;99.13;99407.41;5090700;28;20416;-74
2021/11/01 10:11:34;;;;;;;39.60;15.98;;;;;;;11.98;99.10;99418.00;5091979;28;20100;-74
2021/11/01 10:14:08;;;;;;;30.08;13.55;;;;;;;11.96;98.91;99417.53;5091865;28;20028;-74
2021/11/01 10:19:32;;;;;;;32.60;13.40;;;;;;;11.96;98.95;99422.19;5091990;28;20028;-74
2021/11/01 10:22:00;;;;;;;34.47;14.48;;;;;;;11.96;98.95;99425.72;5090541;28;20287;-74
2021/11/01 10:24:39;;;;;;;31.15;12.95;;;;;;;11.99;98.99;99436.00;5093274;28;20020;-74
2021/11/01 10:27:10;;;;;;;27.85;12.32;;;;;;;12.01;98.90;99418.50;5094728;28;20016;-73
2021/11/01 10:29:51;;;;;;;36.28;15.75;;;;;;;12.01;98.82;99426.69;5096007;28;20035;-75
2021/11/01 10:32:42;;;;;;;30.50;15.60;;;;;;;12.01;98.80;99429.44;5094556;28;20101;-73
2021/11/01 10:35:19;;;;;;;37.15;14.63;;;;;;;11.98;98.78;99434.41;5094488;28;20089;-76
2021/11/01 10:41:27;;;;;;;36.60;16.02;;;;;;;12.02;99.07;99431.03;5058593;28;20508;-76
2021/11/01 11:17:13;;;;;;;36.40;18.92;;;;;;;12.06;98.48;99404.69;5073488;28;19908;-75
2021/11/01 11:27:53;;;;;;;29.50;13.95;;;;;;;11.97;98.43;99421.03;5093906;28;20020;-76
2021/11/01 11:47:27;;;;;;;29.35;15.32;;;;;;;12.02;97.88;99417.38;5084907;28;20462;-77
2021/11/01 11:49:53;;;;;;;38.20;15.48;;;;;;;12.03;97.87;99413.50;5074167;28;20108;-75
2021/11/01 11:52:20;;;;;;;28.23;12.65;;;;;;;12.01;97.87;99411.13;5073299;28;20058;-76
2021/11/01 11:54:49;;;;;;;28.30;11.77;;;;;;;11.99;97.62;99419.63;5072854;28;20032;-75
2021/11/01 11:57:33;;;;;;;27.15;11.48;;;;;;;11.96;97.61;99420.25;5072939;28;20021;-76
2021/11/01 11:59:59;;;;;;;34.00;12.40;;;;;;;12.00;97.62;99417.69;5073946;28;20020;-76
2021/11/01 12:02:40;;;;;;;31.75;11.57;;;;;;;12.02;97.34;99418.19;5073994;28;20108;-76
2021/11/01 12:05:12;;;;;;;25.35;11.63;;;;;;;11.98;97.32;99426.22;5073865;28;20527;-76
2021/11/01 12:07:42;;;;;;;;;;;;;;;11.99;97.22;99419.63;5074217;28;20020;-76
2021/11/01 12:10:13;;;;;;;27.58;10.57;;;;;;;11.95;97.26;99424.13;5073633;28;19995;-76
2021/11/01 12:17:54;;;;;;;21.50;10.00;;;;;;;11.93;97.20;99437.28;5073736;28;20035;-76
2021/11/01 12:20:21;;;;;;;17.23;8.88;;;;;;;11.94;97.36;99441.59;5073488;28;20029;-76
2021/11/01 12:22:49;;;;;;;24.23;8.73;;;;;;;11.94;97.15;99432.59;5072224;28;20099;-77
2021/11/01 12:25:20;;;;;;;22.73;7.15;;;;;;;11.95;97.22;99440.50;5073381;28;20024;-76
2021/11/01 12:27:59;;;;;;;28.50;7.20;;;;;;;11.95;96.90;99445.97;5073220;28;20427;-75
2021/11/01 12:30:28;;;;;;;30.30;7.25;;;;;;;11.93;96.83;99437.28;5073263;28;20050;-77
2021/11/01 12:32:54;;;;;;;21.00;5.07;;;;;;;11.92;96.76;99448.50;5072008;28;20497;-76
2021/11/01 12:35:25;;;;;;;22.05;6.28;;;;;;;11.89;96.30;99441.75;5071933;28;20033;-76
2021/11/01 12:38:05;;;;;;;25.48;5.75;;;;;;;11.87;96.06;99433.09;5073204;28;20020;-76
2021/11/01 12:40:45;;;;;;;22.42;6.72;;;;;;;11.85;96.10;99448.94;5073095;28;20033;-75
2021/11/01 12:57:19;;;;;;;24.70;5.30;;;;;;;11.80;95.14;99432.69;5092060;28;20031;-76
2021/11/01 12:59:47;;;;;;;18.38;4.25;;;;;;;11.83;94.99;99426.59;5091799;28;20032;-76
2021/11/01 13:02:39;;;;;;;20.08;5.20;;;;;;;11.84;95.02;99428.22;5091735;28;20022;-75
2021/11/01 13:05:07;;;;;;;19.05;4.50;;;;;;;11.94;94.92;99433.41;5092927;28;20464;-77
2021/11/01 13:10:52;;;;;;;20.55;7.15;;;;;;;12.86;94.01;99422.47;5092772;28;20357;-76
2021/11/01 13:19:13;;;;;;;19.67;6.05;;;;;;;12.13;91.92;99424.16;5072764;28;20040;-75
2021/11/01 13:21:46;;;;;;;15.20;5.38;;;;;;;11.99;91.86;99430.53;5072166;28;20488;-76
2021/11/01 13:24:13;;;;;;;17.70;5.80;;;;;;;11.94;92.29;99427.16;5072361;28;20050;-75
2021/11/01 13:34:45;;;;;;;18.05;6.07;;;;;;;12.01;92.72;99432.16;5072657;28;20055;-74
2021/11/01 13:40:07;;;;;;;25.30;6.38;;;;;;;12.06;92.75;99440.19;5092603;28;20032;-74
2021/11/01 13:42:32;;;;;;;23.67;5.70;;;;;;;12.50;93.45;99450.13;5091122;28;20051;-74
2021/11/01 13:45:06;;;;;;;25.73;7.22;;;;;;;12.62;91.41;99431.16;5085036;28;20075;-74
2021/11/01 13:47:47;;;;;;;20.52;5.10;;;;;;;12.63;91.42;99440.16;5072197;28;20453;-75
2021/11/01 13:50:14;;;;;;;20.02;5.70;;;;;;;12.52;90.53;99457.97;5072370;28;20012;-75
2021/11/01 13:52:41;;;;;;;18.92;5.28;;;;;;;12.66;89.94;99443.06;5071818;28;20466;-75
2021/11/01 13:57:48;;;;;;;18.45;5.78;;;;;;;13.26;88.58;99460.63;5071105;28;20497;-77
2021/11/01 15:00:05;;;;;;;21.92;5.97;;;;;;;11.62;90.78;99471.94;5090544;28;20039;-75
2021/11/01 15:16:36;;;;;;;18.20;5.90;;;;;;;11.51;92.29;99474.94;5095101;28;20458;-74
2021/11/01 15:22:14;;;;;;;26.52;6.18;;;;;;;11.52;92.08;99487.47;5073707;28;20512;-75
2021/11/01 15:29:21;;;;;;;19.83;5.93;;;;;;;11.50;91.90;99503.34;5095153;28;20028;-74
2021/11/01 15:37:25;;;;;;;20.55;5.13;;;;;;;11.47;91.96;99514.09;5094548;28;20039;-75
2021/11/01 16:18:15;;;;;;;25.92;5.88;;;;;;;11.34;91.67;99519.28;5093939;28;20035;-75
2021/11/01 16:20:42;;;;;;;13.98;4.30;;;;;;;11.35;91.43;99514.66;5061065;28;20024;-77
2021/11/01 16:23:33;;;;;;;21.13;4.75;;;;;;;11.36;91.56;99521.72;5092133;28;20023;-76
2021/11/01 16:26:10;;;;;;;14.77;5.82;;;;;;;11.37;91.46;99531.50;5079184;28;20019;-76
2021/11/01 16:28:36;;;;;;;15.20;4.45;;;;;;;11.38;91.61;99530.41;5093609;28;20027;-77
2021/11/01 16:33:36;;;;;;;14.85;4.00;;;;;;;11.38;91.65;99540.50;5093488;28;20020;-76
2021/11/01 16:36:08;;;;;;;13.15;5.40;;;;;;;11.37;91.76;99539.69;5075651;28;20020;-76
2021/11/01 16:38:43;;;;;;;10.20;4.35;;;;;;;11.38;91.72;99537.78;5076198;28;20016;-76
2021/11/01 16:41:08;;;;;;;22.15;5.78;;;;;;;11.37;91.60;99539.69;5092350;28;20023;-76
2021/11/01 16:43:34;;;;;;;20.55;4.47;;;;;;;11.36;91.70;99540.81;5092271;28;20023;-76
2021/11/01 16:45:59;;;;;;;20.08;4.65;;;;;;;11.37;91.56;99542.41;5055466;28;20020;-76
2021/11/01 16:48:26;;;;;;;19.90;6.60;;;;;;;11.36;91.59;99550.94;5073343;28;20154;-76
2021/11/01 16:50:52;;;;;;;19.83;5.05;;;;;;;11.34;91.45;99562.94;5069021;28;20103;-76
2021/11/01 16:53:17;;;;;;;9.55;3.60;;;;;;;11.34;91.38;99552.03;5092064;28;20031;-76
2021/11/01 16:55:47;;;;;;;12.50;4.22;;;;;;;11.33;91.17;99560.53;5091906;28;20028;-76
2021/11/01 16:58:21;;;;;;;18.00;4.90;;;;;;;11.34;91.13;99556.69;5075266;28;20038;-76
2021/11/01 17:01:06;;;;;;;17.33;4.78;;;;;;;11.34;90.92;99562.13;5092073;28;20055;-76
2021/11/01 17:03:47;;;;;;;14.38;3.70;;;;;;;11.33;90.73;99576.91;5092926;28;20020;-76
2021/11/01 17:22:46;;;;;;;14.77;6.22;;;;;;;11.32;89.84;99592.47;5071459;28;20054;-76
2021/11/01 17:25:26;;;;;;;18.15;5.47;;;;;;;11.34;89.98;99586.69;5071053;28;20032;-76
2021/11/01 17:30:43;;;;;;;12.30;3.85;;;;;;;11.34;89.90;99592.94;5072425;28;20020;-76
2021/11/01 18:39:47;;;;;;;14.95;5.28;;;;;;;11.20;89.85;99638.56;5070749;28;20032;-74
2021/11/01 18:45:00;;;;;;;16.05;6.32;;;;;;;11.17;89.89;99643.84;5077359;28;20050;-75
2021/11/01 18:53:03;;;;;;;17.75;6.78;;;;;;;11.23;89.67;99637.94;5076400;28;20112;-75
2021/11/01 18:55:28;;;;;;;12.48;4.97;;;;;;;11.24;89.52;99639.59;5077952;28;20024;-76
2021/11/01 18:57:55;;;;;;;20.63;6.90;;;;;;;11.23;89.35;99631.69;5094134;28;20465;-75
2021/11/01 19:00:20;;;;;;;16.85;7.68;;;;;;;11.24;89.35;99636.03;5069657;28;20020;-75
2021/11/01 19:07:52;;;;;;;22.50;7.20;;;;;;;11.20;89.31;99643.22;5074203;28;20377;-75
2021/11/01 19:13:22;;;;;;;23.55;6.82;;;;;;;11.17;89.68;99638.38;5075113;28;20024;-76
2021/11/01 19:16:40;;;;;;;14.55;5.80;;;;;;;11.15;89.96;99641.41;5066060;28;20036;-75
2021/11/01 20:05:25;;;;;;;18.63;7.00;;;;;;;11.14;87.84;99669.00;5077070;28;20027;-75
2021/11/01 20:13:45;;;;;;;19.48;5.38;;;;;;;11.08;88.76;99684.66;5072530;28;20082;-74
2021/11/01 20:16:35;;;;;;;14.35;5.95;;;;;;;11.07;89.16;99689.28;5073638;28;20059;-74
2021/11/01 21:25:09;;;;;;;11.63;5.32;;;;;;;11.08;87.81;99722.84;5092492;28;20034;-74
2021/11/01 21:27:34;;;;;;;15.23;5.30;;;;;;;11.09;87.71;99741.63;5091516;28;20508;-75
2021/11/01 21:30:00;;;;;;;12.68;5.38;;;;;;;11.08;87.62;99723.66;5060618;28;20032;-74
2021/11/01 21:32:25;;;;;;;13.52;5.75;;;;;;;11.06;87.66;99727.78;5074305;28;20431;-74
2021/11/01 21:37:23;;;;;;;12.55;5.40;;;;;;;11.04;87.48;99733.53;5092413;28;20144;-75
2021/11/01 21:39:52;;;;;;;11.05;4.40;;;;;;;11.03;87.60;99729.19;5091338;28;20480;-76
2021/11/01 21:42:18;;;;;;;15.98;6.47;;;;;;;11.02;87.66;99734.94;5092182;28;20093;-74
2021/11/01 21:44:43;;;;;;;14.60;5.10;;;;;;;11.01;87.79;99727.88;5086029;28;20433;-76
2021/11/01 21:47:09;;;;;;;19.17;6.10;;;;;;;11.01;87.77;99730.63;5072124;28;20036;-76
2021/11/01 21:49:35;;;;;;;20.42;5.50;;;;;;;11.00;87.80;99738.00;5070851;28;20020;-75
2021/11/01 21:52:00;;;;;;;16.33;5.63;;;;;;;10.97;87.86;99730.41;5081592;28;20031;-75
2021/11/01 21:54:39;;;;;;;14.38;5.55;;;;;;;10.96;88.06;99723.34;5090966;28;20465;-75
2021/11/01 21:57:09;;;;;;;17.38;6.15;;;;;;;10.96;88.15;99741.63;5070862;28;20025;-75
2021/11/01 22:18:37;;;;;;;19.10;7.15;;;;;;;10.90;89.10;99719.09;5070737;28;20060;-74
2021/11/01 22:21:13;;;;;;;15.82;6.55;;;;;;;10.89;89.21;99740.09;5053688;28;20027;-76
2021/11/01 22:23:47;;;;;;;19.25;6.57;;;;;;;10.88;89.19;99729.47;5079454;28;20046;-75
2021/11/01 22:44:41;;;;;;;18.60;8.05;;;;;;;10.88;89.75;99733.03;5078197;28;20028;-75
2021/11/01 22:58:20;;;;;;;13.38;6.95;;;;;;;10.92;89.58;99729.72;5002060;28;20144;-75
2021/11/01 23:00:53;;;;;;;12.82;5.75;;;;;;;10.89;89.60;99726.47;4996974;28;20026;-75
2021/11/01 23:03:27;;;;;;;11.80;6.40;;;;;;;10.88;89.58;99719.41;5045310;28;20032;-75
2021/11/01 23:33:10;;;;;;;15.10;6.18;;;;;;;10.94;88.46;99717.38;5094808;28;20046;-74
2021/11/01 23:35:36;;;;;;;20.13;5.55;;;;;;;10.96;88.04;99719.81;5094504;28;20457;-75
2021/11/01 23:38:02;;;;;;;16.92;7.15;;;;;;;10.94;88.11;99722.84;5093567;28;20039;-75
2021/11/01 23:40:27;;;;;;;17.75;5.95;;;;;;;10.93;87.99;99729.38;5094577;28;20016;-74
2021/11/01 23:42:53;;;;;;;25.55;6.97;;;;;;;10.94;88.03;99736.47;5093476;28;20059;-74
2021/11/01 23:45:18;;;;;;;12.00;5.60;;;;;;;10.93;88.06;99734.84;5084485;28;20025;-75
2021/11/01 23:47:43;;;;;;;13.38;7.30;;;;;;;10.93;88.09;99737.56;5074243;28;20070;-74
2021/11/01 23:50:09;;;;;;;13.40;6.63;;;;;;;10.94;88.08;99739.22;5074289;28;20013;-74
2021/11/01 23:52:41;;;;;;;11.95;6.13;;;;;;;10.93;88.07;99726.66;5074236;28;20030;-75
2021/11/01 23:55:08;;;;;;;14.50;5.72;;;;;;;10.93;88.08;99723.13;5074198;28;20110;-75
2021/11/01 23:57:33;;;;;;;13.43;5.88;;;;;;;10.92;88.15;99724.25;5074221;28;20117;-75